Time;durP1;ratioP1;P1;durP2;ratioP2;P2;SDS_P1;SDS_P2;PMS_P1;PMS_P2;Temp;Humidity;BMP_temperature;BMP_pressure;BME280_temperature;BME280_humidity;BME280_pressure;Samples;Min_cycle;Max_cycle;Signal;HPM_P1;HPM_P2
2023/04/10 00:01:20;;;;;;;34.67;9.90;;;19.20;33.10;;;;;;20839701;28;20103;-57
2023/04/10 00:11:21;;;;;;;32.60;9.25;;;19.00;33.50;;;;;;20839328;28;20049;-56
2023/04/10 00:21:22;;;;;;;41.60;10.55;;;19.00;33.60;;;;;;20837952;28;20053;-56
2023/04/10 00:31:24;;;;;;;35.30;9.02;;;19.10;33.60;;;;;;20838822;28;20049;-57
2023/04/10 00:41:25;;;;;;;33.78;9.52;;;19.00;33.70;;;;;;20837964;28;20053;-56
2023/04/10 00:51:27;;;;;;;37.42;8.75;;;18.90;33.70;;;;;;20835732;28;20052;-56
2023/04/10 01:01:28;;;;;;;36.58;10.57;;;18.90;34.00;;;;;;20836073;28;20056;-57
2023/04/10 01:11:43;;;;;;;32.53;10.25;;;18.80;33.70;;;;;;20835367;28;20103;-56
2023/04/10 01:21:45;;;;;;;30.98;8.52;;;18.80;33.80;;;;;;20833369;28;20049;-57
2023/04/10 01:31:56;;;;;;;38.92;11.00;;;18.70;33.80;;;;;;20832748;28;20056;-57
2023/04/10 01:42:00;;;;;;;35.30;8.43;;;18.50;34.00;;;;;;20832970;28;20045;-56
2023/04/10 01:52:02;;;;;;;32.83;7.65;;;18.40;33.60;;;;;;20832350;28;20050;-57
2023/04/10 02:02:06;;;;;;;41.90;10.73;;;18.40;33.70;;;;;;20831475;28;20049;-57
2023/04/10 02:12:17;;;;;;;35.92;9.35;;;18.30;35.50;;;;;;20831308;28;20513;-56
2023/04/10 02:22:19;;;;;;;33.95;10.32;;;18.20;36.50;;;;;;20829406;28;20073;-55
2023/04/10 02:32:21;;;;;;;37.85;8.75;;;17.90;37.30;;;;;;20829217;28;20045;-55
2023/04/10 02:42:22;;;;;;;38.13;8.48;;;17.90;37.00;;;;;;20829998;28;20050;-57
2023/04/10 02:52:24;;;;;;;34.38;9.63;;;17.80;36.90;;;;;;20829741;28;20050;-55
2023/04/10 03:02:25;;;;;;;34.22;7.70;;;17.70;36.80;;;;;;20829471;28;20457;-55
2023/04/10 03:12:27;;;;;;;34.28;9.38;;;17.60;37.00;;;;;;20838992;28;20049;-56
2023/04/10 03:22:31;;;;;;;41.47;10.27;;;17.60;37.40;;;;;;20841855;28;20058;-56
2023/04/10 03:32:32;;;;;;;32.90;7.78;;;17.30;38.00;;;;;;20842431;28;20055;-56
2023/04/10 03:42:34;;;;;;;33.72;8.25;;;17.10;37.70;;;;;;20841934;28;20049;-55
2023/04/10 03:52:35;;;;;;;32.45;7.47;;;17.20;37.50;;;;;;20841558;28;20057;-55
2023/04/10 04:02:37;;;;;;;32.50;7.85;;;17.10;37.60;;;;;;20840416;28;20395;-56
2023/04/10 04:12:38;;;;;;;38.92;9.25;;;17.00;38.10;;;;;;20839784;28;20050;-56
2023/04/10 04:22:40;;;;;;;35.60;9.43;;;16.80;38.90;;;;;;20837383;28;20052;-56
2023/04/10 04:32:41;;;;;;;35.97;8.98;;;16.70;40.30;;;;;;20838450;28;20053;-57
2023/04/10 04:42:43;;;;;;;38.80;9.23;;;16.70;40.90;;;;;;20837514;28;20048;-57
2023/04/10 04:52:44;;;;;;;32.10;8.40;;;16.60;39.80;;;;;;20836492;28;20045;-56
2023/04/10 05:02:46;;;;;;;44.38;9.15;;;16.50;39.70;;;;;;20836082;28;20053;-56
2023/04/10 05:12:47;;;;;;;44.25;10.02;;;16.30;39.80;;;;;;20834882;28;20052;-55
2023/04/10 05:22:51;;;;;;;44.00;9.25;;;16.10;40.30;;;;;;20834140;28;20509;-57
2023/04/10 05:32:53;;;;;;;;;;;15.80;42.40;;;;;;20833566;28;20060;-57
2023/04/10 05:42:54;;;;;;;45.33;9.05;;;15.50;43.40;;;;;;20832911;28;20378;-56
2023/04/10 05:52:55;;;;;;;43.20;10.02;;;15.30;43.80;;;;;;20831913;28;20045;-56
2023/04/10 06:02:57;;;;;;;40.15;9.00;;;15.10;43.90;;;;;;20829932;28;20046;-56
2023/04/10 06:12:58;;;;;;;46.40;10.32;;;15.00;44.30;;;;;;20830731;28;20053;-54
2023/04/10 06:23:00;;;;;;;43.78;10.93;;;15.00;44.40;;;;;;20830575;28;20095;-56
2023/04/10 06:33:01;;;;;;;49.97;11.07;;;15.20;44.00;;;;;;20829605;28;20549;-56
2023/04/10 06:43:02;;;;;;;36.88;9.30;;;15.10;44.40;;;;;;20834611;28;20042;-56
2023/04/10 06:53:04;;;;;;;44.38;8.93;;;15.20;45.10;;;;;;20846284;28;20060;-56
2023/04/10 07:03:05;;;;;;;50.83;9.73;;;15.30;44.60;;;;;;20843910;28;20052;-57
2023/04/10 07:13:07;;;;;;;37.47;9.57;;;15.30;44.30;;;;;;20844427;28;20080;-56
2023/04/10 07:23:08;;;;;;;46.90;10.60;;;15.40;44.00;;;;;;20844019;28;20045;-56
2023/04/10 07:33:10;;;;;;;43.15;10.45;;;15.70;44.10;;;;;;20841669;28;20139;-57
2023/04/10 07:43:11;;;;;;;51.58;10.35;;;16.20;43.30;;;;;;20840750;28;20072;-58
2023/04/10 07:53:13;;;;;;;55.80;12.40;;;16.50;42.60;;;;;;20840542;28;20049;-57
2023/04/10 08:03:14;;;;;;;45.05;12.30;;;16.80;41.80;;;;;;20840139;28;20046;-56
2023/04/10 08:13:16;;;;;;;54.08;10.35;;;17.20;40.70;;;;;;20838427;28;20573;-56
2023/04/10 08:23:17;;;;;;;45.85;11.27;;;17.70;39.10;;;;;;20839290;28;20042;-56
2023/04/10 08:33:19;;;;;;;57.60;10.65;;;18.00;37.60;;;;;;20836939;28;20049;-56
2023/04/10 08:43:20;;;;;;;49.90;12.30;;;18.60;36.90;;;;;;20836074;28;20061;-57
2023/04/10 08:53:23;;;;;;;48.05;11.60;;;18.90;35.90;;;;;;20836998;28;20442;-56
2023/04/10 09:03:26;;;;;;;63.63;15.80;;;19.20;35.70;;;;;;20834172;28;20046;-56
2023/04/10 09:13:37;;;;;;;47.35;11.90;;;19.40;35.90;;;;;;20832877;28;20062;-56
2023/04/10 09:23:43;;;;;;;65.60;12.48;;;19.60;36.10;;;;;;20833661;28;20181;-56
2023/04/10 09:33:45;;;;;;;60.33;11.63;;;20.00;35.60;;;;;;20833526;28;20466;-58
2023/04/10 09:43:46;;;;;;;51.17;13.57;;;20.40;35.20;;;;;;20830971;28;20076;-56
2023/04/10 09:53:49;;;;;;;48.95;11.38;;;20.70;34.30;;;;;;20831619;28;20045;-57
2023/04/10 10:03:53;;;;;;;44.88;10.57;;;21.00;33.70;;;;;;20831067;28;20045;-58
2023/04/10 10:13:55;;;;;;;47.45;10.75;;;21.40;32.40;;;;;;20829940;28;20053;-55
2023/04/10 10:23:59;;;;;;;49.88;10.70;;;21.80;30.70;;;;;;20828743;28;20045;-57
2023/04/10 10:34:04;;;;;;;44.97;11.45;;;22.10;29.70;;;;;;20828116;28;20061;-57
2023/04/10 10:44:20;;;;;;;32.20;9.60;;;22.60;28.80;;;;;;20829572;28;20046;-60
2023/04/10 10:54:31;;;;;;;41.25;9.70;;;23.10;27.90;;;;;;20829755;28;20046;-57
2023/04/10 11:04:46;;;;;;;36.42;8.88;;;23.20;27.80;;;;;;20828245;28;20049;-56
2023/04/10 11:15:02;;;;;;;46.63;10.18;;;23.30;27.40;;;;;;20829708;28;20057;-58
2023/04/10 11:25:09;;;;;;;43.97;17.00;;;23.20;27.80;;;;;;20827549;28;20104;-57
2023/04/10 11:35:10;;;;;;;36.25;9.60;;;23.40;28.00;;;;;;20840341;28;20060;-57
2023/04/10 11:45:25;;;;;;;40.00;8.55;;;23.40;27.80;;;;;;20841190;28;20051;-57
2023/04/10 11:55:37;;;;;;;36.42;8.45;;;23.60;26.10;;;;;;20840714;28;20050;-57
2023/04/10 12:05:46;;;;;;;41.37;8.93;;;23.70;26.50;;;;;;20838825;28;20053;-56
2023/04/10 12:15:47;;;;;;;28.65;6.55;;;24.10;26.10;;;;;;20838062;28;20092;-56
2023/04/10 12:25:49;;;;;;;21.03;6.10;;;24.20;24.10;;;;;;20835369;28;20483;-57
2023/04/10 12:35:51;;;;;;;19.75;5.93;;;24.50;24.10;;;;;;20837521;28;20155;-57
2023/04/10 12:45:52;;;;;;;28.97;6.20;;;24.70;23.00;;;;;;20837101;28;20095;-58
2023/04/10 12:56:05;;;;;;;19.63;6.23;;;24.90;22.60;;;;;;20837269;28;20049;-57
2023/04/10 13:06:07;;;;;;;18.23;4.35;;;25.20;21.80;;;;;;20836027;28;20053;-56
2023/04/10 13:16:12;;;;;;;;;;;25.10;21.70;;;;;;20833182;28;20057;-56
2023/04/10 13:26:13;;;;;;;17.00;5.38;;;25.00;21.70;;;;;;20834495;28;19928;-57
2023/04/10 13:36:14;;;;;;;17.70;5.53;;;25.20;21.00;;;;;;20833947;28;20045;-57
2023/04/10 13:46:16;;;;;;;20.30;5.83;;;25.30;21.40;;;;;;20833290;28;20081;-57
2023/04/10 13:56:17;;;;;;;12.37;4.27;;;25.30;21.00;;;;;;20831949;28;20094;-56
2023/04/10 14:06:19;;;;;;;15.80;4.53;;;25.20;20.50;;;;;;20832079;28;20433;-57
2023/04/10 14:16:20;;;;;;;16.97;5.70;;;25.20;20.40;;;;;;20830901;28;20057;-57
2023/04/10 14:26:22;;;;;;;11.80;3.23;;;25.40;20.90;;;;;;20831427;28;20532;-58
2023/04/10 14:36:23;;;;;;;12.43;3.88;;;25.50;19.60;;;;;;20829708;28;20061;-57
2023/04/10 14:46:25;;;;;;;9.73;2.73;;;25.60;19.00;;;;;;20829916;28;20051;-57
2023/04/10 14:56:26;;;;;;;6.43;2.00;;;25.70;18.50;;;;;;20829706;28;20076;-57
2023/04/10 15:06:28;;;;;;;10.40;2.60;;;25.70;17.90;;;;;;20835458;28;20053;-57
2023/04/10 15:16:29;;;;;;;6.55;2.22;;;25.80;18.10;;;;;;20843370;28;20053;-57
2023/04/10 15:26:31;;;;;;;6.10;2.03;;;25.80;16.70;;;;;;20843901;28;20057;-57
2023/04/10 15:36:32;;;;;;;6.00;2.53;;;25.80;16.90;;;;;;20843306;28;20053;-57
2023/04/10 15:46:34;;;;;;;10.07;3.10;;;25.80;16.80;;;;;;20842455;28;20056;-58
2023/04/10 15:56:36;;;;;;;5.68;1.85;;;25.90;16.70;;;;;;20841539;28;20491;-59
2023/04/10 16:06:37;;;;;;;5.97;1.42;;;25.90;16.30;;;;;;20840726;28;20060;-57
2023/04/10 16:16:39;;;;;;;5.40;1.63;;;25.90;16.10;;;;;;20838658;28;20061;-58
2023/04/10 16:26:41;;;;;;;4.13;1.87;;;25.80;16.50;;;;;;20837859;28;20049;-57
2023/04/10 16:36:42;;;;;;;5.37;1.50;;;25.60;16.80;;;;;;20837645;28;20790;-60
2023/04/10 16:46:43;;;;;;;5.40;2.13;;;25.70;16.40;;;;;;20837801;28;20118;-58
2023/04/10 16:56:45;;;;;;;9.87;3.50;;;25.70;16.10;;;;;;20835733;28;20049;-55
2023/04/10 17:06:46;;;;;;;5.00;1.60;;;25.60;16.40;;;;;;20834845;28;20049;-57
2023/04/10 17:16:47;;;;;;;5.67;3.27;;;25.60;16.70;;;;;;20834264;28;20494;-57
2023/04/10 17:26:49;;;;;;;7.13;2.27;;;25.40;16.80;;;;;;20834489;28;20053;-56
2023/04/10 17:36:50;;;;;;;5.53;1.70;;;25.10;16.90;;;;;;20833813;28;20049;-57
2023/04/10 17:46:52;;;;;;;6.23;1.33;;;25.00;17.60;;;;;;20833686;28;20045;-59
2023/04/10 17:56:55;;;;;;;8.65;1.60;;;24.70;18.00;;;;;;20832451;28;20076;-57
2023/04/10 18:06:58;;;;;;;5.35;1.55;;;24.50;18.60;;;;;;20831491;28;20049;-58
2023/04/10 18:16:59;;;;;;;4.90;1.80;;;24.40;18.40;;;;;;20829871;28;20054;-56
2023/04/10 18:27:02;;;;;;;7.80;1.90;;;24.10;18.70;;;;;;20829166;28;20073;-58
2023/04/10 18:37:03;;;;;;;6.22;3.13;;;23.90;19.90;;;;;;20831763;28;20165;-59
2023/04/10 18:47:05;;;;;;;4.40;1.60;;;23.60;19.80;;;;;;20846219;28;20047;-58
2023/04/10 18:57:06;;;;;;;7.22;3.63;;;23.20;20.10;;;;;;20844308;28;20057;-58
2023/04/10 19:07:08;;;;;;;6.37;1.50;;;23.00;20.60;;;;;;20843020;28;20483;-56
2023/04/10 19:17:09;;;;;;;6.32;2.00;;;22.90;20.70;;;;;;20842892;28;20115;-55
2023/04/10 19:27:11;;;;;;;6.45;1.98;;;22.70;21.00;;;;;;20843256;28;20045;-56
2023/04/10 19:37:12;;;;;;;5.38;2.15;;;22.50;21.50;;;;;;20842272;28;20082;-55
2023/04/10 19:47:13;;;;;;;13.48;8.05;;;22.30;22.00;;;;;;20841646;28;20054;-57
2023/04/10 19:57:15;;;;;;;5.07;2.80;;;22.20;22.40;;;;;;20840116;28;20045;-57
2023/04/10 20:07:16;;;;;;;5.40;2.05;;;22.00;23.20;;;;;;20840350;28;20042;-56
2023/04/10 20:17:18;;;;;;;7.90;1.88;;;21.80;23.50;;;;;;20838423;28;20092;-56
2023/04/10 20:27:20;;;;;;;6.65;2.00;;;21.70;24.20;;;;;;20837942;28;20061;-58
2023/04/10 20:37:21;;;;;;;2.97;1.65;;;21.50;24.90;;;;;;20836628;28;20045;-57
2023/04/10 20:47:23;;;;;;;3.30;1.50;;;21.40;25.40;;;;;;20837366;28;20068;-56
2023/04/10 20:57:24;;;;;;;15.63;7.47;;;21.20;26.40;;;;;;20835269;28;20060;-59
2023/04/10 21:07:26;;;;;;;5.18;1.88;;;21.10;27.30;;;;;;20835966;28;20049;-57
2023/04/10 21:17:29;;;;;;;4.75;1.60;;;21.10;27.70;;;;;;20833802;28;20104;-59
2023/04/10 21:27:31;;;;;;;7.32;1.73;;;21.00;28.50;;;;;;20834055;28;20053;-56
2023/04/10 21:37:32;;;;;;;7.93;2.20;;;20.80;29.40;;;;;;20833197;28;20449;-56
2023/04/10 21:47:34;;;;;;;3.53;1.40;;;20.70;30.20;;;;;;20832282;28;20042;-58
2023/04/10 21:57:35;;;;;;;5.82;1.65;;;20.70;30.70;;;;;;20830080;28;20061;-58
2023/04/10 22:07:36;;;;;;;4.57;1.55;;;20.40;31.10;;;;;;20830868;28;20502;-56
2023/04/10 22:17:38;;;;;;;2.85;1.50;;;20.40;31.20;;;;;;20830593;28;20049;-56
2023/04/10 22:27:39;;;;;;;2.83;1.77;;;20.40;31.50;;;;;;20831092;28;20102;-56
2023/04/10 22:37:43;;;;;;;4.38;1.50;;;20.30;31.60;;;;;;20830356;28;20079;-55
2023/04/10 22:47:44;;;;;;;;;;;20.20;31.70;;;;;;20829894;28;20465;-57
2023/04/10 22:57:48;;;;;;;5.13;1.50;;;20.10;32.60;;;;;;20829746;28;19921;-56
2023/04/10 23:07:49;;;;;;;4.78;1.10;;;19.90;33.40;;;;;;20828917;28;20088;-57
2023/04/10 23:17:51;;;;;;;5.32;1.98;;;19.70;34.00;;;;;;20828679;28;20458;-56
2023/04/10 23:27:52;;;;;;;6.25;1.80;;;19.60;34.50;;;;;;20835311;28;20140;-55
2023/04/10 23:37:54;;;;;;;4.75;1.85;;;19.50;34.90;;;;;;20842672;28;20046;-56
2023/04/10 23:47:55;;;;;;;3.17;1.73;;;19.40;35.40;;;;;;20841611;28;20096;-56
2023/04/10 23:57:56;;;;;;;4.50;1.50;;;19.20;36.00;;;;;;20840878;28;20057;-56
